Time;durP1;ratioP1;P1;durP2;ratioP2;P2;SDS_P1;SDS_P2;PMS_P1;PMS_P2;Temp;Humidity;BMP_temperature;BMP_pressure;BME280_temperature;BME280_humidity;BME280_pressure;Samples;Min_cycle;Max_cycle;Signal;HPM_P1;HPM_P2
2021/10/15 00:00:23;;;;;;;31.08;28.50;;;6.20;99.90;;;;;;4942982;28;20465;-82
2021/10/15 00:02:49;;;;;;;31.55;28.73;;;6.20;99.90;;;;;;4970408;28;20039;-81
2021/10/15 00:05:16;;;;;;;31.70;29.02;;;6.10;99.90;;;;;;4967514;28;20054;-82
2021/10/15 00:07:42;;;;;;;28.30;26.08;;;6.00;99.90;;;;;;4958149;28;20503;-83
2021/10/15 00:10:09;;;;;;;28.30;26.00;;;6.00;99.90;;;;;;4977588;28;20035;-82
2021/10/15 00:12:35;;;;;;;28.38;26.10;;;5.90;99.90;;;;;;4974124;28;20023;-83
2021/10/15 00:15:03;;;;;;;29.83;27.42;;;5.90;99.90;;;;;;4959881;28;20035;-81
2021/10/15 00:17:29;;;;;;;29.27;27.10;;;5.90;99.90;;;;;;4961910;28;20051;-82
2021/10/15 00:19:58;;;;;;;30.25;27.83;;;6.00;99.90;;;;;;4949940;29;20043;-80
2021/10/15 00:22:27;;;;;;;30.58;28.00;;;5.90;99.90;;;;;;4942360;29;20039;-82
2021/10/15 00:24:53;;;;;;;32.72;29.65;;;5.90;99.90;;;;;;4943043;29;20054;-82
2021/10/15 00:27:21;;;;;;;29.80;26.67;;;5.90;99.90;;;;;;4975481;28;20046;-82
2021/10/15 00:29:47;;;;;;;29.73;27.02;;;5.80;99.90;;;;;;4960516;28;20480;-82
2021/10/15 00:32:14;;;;;;;27.63;25.10;;;5.80;99.90;;;;;;4941904;28;20043;-82
2021/10/15 00:34:40;;;;;;;25.85;23.67;;;5.80;99.90;;;;;;4943628;29;20038;-81
2021/10/15 00:37:07;;;;;;;27.63;25.55;;;5.80;99.90;;;;;;4950004;28;20034;-82
2021/10/15 00:39:34;;;;;;;29.08;26.80;;;5.90;99.90;;;;;;4959905;28;20035;-82
2021/10/15 00:42:03;;;;;;;28.48;26.05;;;5.90;99.90;;;;;;4939387;28;20039;-82
2021/10/15 00:44:29;;;;;;;30.27;27.50;;;5.90;99.90;;;;;;4939982;29;20047;-82
2021/10/15 00:46:56;;;;;;;28.40;25.85;;;6.00;99.90;;;;;;4941221;28;20053;-81
2021/10/15 00:49:22;;;;;;;27.05;25.05;;;6.00;99.90;;;;;;4964455;28;20035;-81
2021/10/15 00:51:48;;;;;;;28.63;25.85;;;6.00;99.90;;;;;;4965986;28;20469;-82
2021/10/15 00:54:16;;;;;;;29.17;26.73;;;6.20;99.90;;;;;;4957931;28;20476;-82
2021/10/15 00:56:45;;;;;;;31.08;28.88;;;6.10;99.90;;;;;;4958355;28;20484;-82
2021/10/15 00:59:14;;;;;;;31.92;29.27;;;6.20;99.90;;;;;;4970070;28;20031;-82
2021/10/15 01:01:40;;;;;;;31.70;29.50;;;6.20;99.90;;;;;;4965578;28;20038;-82
2021/10/15 01:04:07;;;;;;;34.20;31.50;;;6.20;99.90;;;;;;4981221;28;20035;-82
2021/10/15 01:06:34;;;;;;;37.13;34.03;;;6.40;99.90;;;;;;4975933;28;20038;-82
2021/10/15 01:09:02;;;;;;;38.53;34.80;;;6.40;99.90;;;;;;4947989;28;20039;-82
2021/10/15 01:11:28;;;;;;;40.70;37.40;;;6.40;99.90;;;;;;4972543;28;20411;-82
2021/10/15 01:13:55;;;;;;;46.08;42.38;;;6.30;99.90;;;;;;4952213;29;20039;-83
2021/10/15 01:16:29;;;;;;;47.58;43.75;;;6.40;99.90;;;;;;4953158;28;20416;-83
2021/10/15 01:19:00;;;;;;;46.15;42.50;;;6.40;99.90;;;;;;4939190;28;20057;-84
2021/10/15 01:21:27;;;;;;;47.67;43.55;;;6.50;99.90;;;;;;4937815;28;20054;-83
2021/10/15 01:23:54;;;;;;;45.25;41.75;;;6.50;99.90;;;;;;4937845;28;20042;-83
2021/10/15 01:26:20;;;;;;;41.45;38.15;;;6.50;99.90;;;;;;4944514;29;20043;-84
2021/10/15 01:28:46;;;;;;;42.15;38.33;;;6.50;99.90;;;;;;4955197;28;20455;-83
2021/10/15 01:31:12;;;;;;;36.00;32.97;;;6.50;99.90;;;;;;4961171;28;20464;-82
2021/10/15 01:33:38;;;;;;;34.90;31.92;;;6.50;99.90;;;;;;4947931;29;20050;-84
2021/10/15 01:36:05;;;;;;;31.55;28.70;;;6.50;99.90;;;;;;4961397;28;20027;-83
2021/10/15 01:38:31;;;;;;;31.10;27.95;;;6.50;99.90;;;;;;4956420;28;20380;-82
2021/10/15 01:40:57;;;;;;;24.90;23.00;;;6.40;99.90;;;;;;4948611;29;20560;-83
2021/10/15 01:43:30;;;;;;;26.95;24.90;;;6.30;99.90;;;;;;4940420;28;20026;-83
2021/10/15 01:45:57;;;;;;;26.75;24.73;;;6.30;99.90;;;;;;4951094;29;20051;-83
2021/10/15 01:48:24;;;;;;;24.95;23.02;;;6.30;99.90;;;;;;4955386;28;20031;-83
2021/10/15 01:50:51;;;;;;;28.05;25.63;;;6.20;99.90;;;;;;4966586;28;20035;-82
2021/10/15 01:53:18;;;;;;;26.95;24.30;;;6.20;99.90;;;;;;4954468;28;20038;-83
2021/10/15 01:55:44;;;;;;;27.75;25.52;;;6.10;99.90;;;;;;4954115;28;20031;-81
2021/10/15 01:58:11;;;;;;;29.65;26.73;;;6.20;99.90;;;;;;4968160;28;20097;-81
2021/10/15 02:00:37;;;;;;;28.63;26.23;;;6.20;99.90;;;;;;4956308;28;20098;-83
2021/10/15 02:03:04;;;;;;;30.48;27.67;;;6.20;99.90;;;;;;4956172;28;20035;-81
2021/10/15 02:05:31;;;;;;;30.58;28.42;;;6.20;99.90;;;;;;4947224;28;20048;-82
2021/10/15 02:07:57;;;;;;;29.55;27.08;;;6.20;99.90;;;;;;4962387;28;20277;-83
2021/10/15 02:10:24;;;;;;;28.30;25.75;;;6.10;99.90;;;;;;4939915;28;20050;-83
2021/10/15 02:12:51;;;;;;;30.25;27.85;;;6.20;99.90;;;;;;4972069;28;20031;-83
2021/10/15 02:15:17;;;;;;;28.75;26.45;;;6.30;99.90;;;;;;4955127;28;20046;-83
2021/10/15 02:17:45;;;;;;;27.73;25.65;;;6.30;99.90;;;;;;4963102;28;20047;-82
2021/10/15 02:20:14;;;;;;;29.33;27.17;;;6.20;99.90;;;;;;4942998;28;20035;-82
2021/10/15 02:22:46;;;;;;;28.25;26.05;;;6.20;99.90;;;;;;4972074;28;20444;-83
2021/10/15 02:25:14;;;;;;;28.27;25.88;;;6.20;99.90;;;;;;4971668;28;20043;-83
2021/10/15 02:27:41;;;;;;;27.02;24.73;;;6.10;99.90;;;;;;4956027;28;20035;-83
2021/10/15 02:30:09;;;;;;;28.88;26.58;;;6.20;99.90;;;;;;4957689;28;20392;-83
2021/10/15 02:32:37;;;;;;;28.67;26.42;;;6.10;99.90;;;;;;4957969;29;20050;-83
2021/10/15 02:35:07;;;;;;;28.48;26.38;;;6.10;99.90;;;;;;4972979;28;20042;-83
2021/10/15 02:37:33;;;;;;;28.83;26.65;;;6.20;99.90;;;;;;4947841;29;20507;-83
2021/10/15 02:39:59;;;;;;;28.13;26.05;;;6.10;99.90;;;;;;4967476;28;20038;-83
2021/10/15 02:42:26;;;;;;;27.25;25.13;;;6.10;99.90;;;;;;4976214;28;20038;-82
2021/10/15 02:44:52;;;;;;;29.17;26.52;;;6.00;99.90;;;;;;4966842;28;20035;-82
2021/10/15 02:47:19;;;;;;;26.58;24.63;;;6.00;99.90;;;;;;4958513;28;20519;-83
2021/10/15 02:49:45;;;;;;;27.83;25.73;;;5.90;99.90;;;;;;4956225;28;20044;-83
2021/10/15 02:52:11;;;;;;;27.33;25.20;;;5.90;99.90;;;;;;4966089;28;20035;-82
2021/10/15 02:54:37;;;;;;;26.40;24.15;;;5.80;99.90;;;;;;4957899;28;20042;-83
2021/10/15 02:57:04;;;;;;;26.42;24.00;;;5.80;99.90;;;;;;4940390;29;20561;-82
2021/10/15 02:59:30;;;;;;;26.23;23.55;;;5.70;99.90;;;;;;4950752;28;20043;-82
2021/10/15 03:01:56;;;;;;;26.75;24.73;;;5.60;99.90;;;;;;4976163;28;20031;-82
2021/10/15 03:04:23;;;;;;;27.15;24.98;;;5.60;99.90;;;;;;4961525;28;20039;-83
2021/10/15 03:06:50;;;;;;;31.13;25.73;;;5.70;99.90;;;;;;4939002;29;20047;-83
2021/10/15 03:09:16;;;;;;;27.08;24.98;;;5.70;99.90;;;;;;4962138;28;20039;-83
2021/10/15 03:11:43;;;;;;;26.10;23.58;;;5.60;99.90;;;;;;4978914;28;20049;-83
2021/10/15 03:14:09;;;;;;;26.13;24.15;;;5.50;99.90;;;;;;4987451;28;20031;-82
2021/10/15 03:16:36;;;;;;;23.83;22.23;;;5.50;99.90;;;;;;4964953;28;20130;-82
2021/10/15 03:19:02;;;;;;;23.90;22.10;;;5.50;99.90;;;;;;4988425;28;20354;-83
2021/10/15 03:21:28;;;;;;;26.92;24.38;;;5.50;99.90;;;;;;4982045;28;20468;-82
2021/10/15 03:23:54;;;;;;;23.95;22.10;;;5.40;99.90;;;;;;4977466;28;20054;-82
2021/10/15 03:26:21;;;;;;;23.45;21.80;;;5.30;99.90;;;;;;4962743;28;20042;-82
2021/10/15 03:28:50;;;;;;;26.55;24.42;;;5.30;99.90;;;;;;4925036;29;20039;-83
2021/10/15 03:31:16;;;;;;;27.65;25.48;;;5.30;99.90;;;;;;4958457;28;20032;-82
2021/10/15 03:33:42;;;;;;;30.10;27.50;;;5.30;99.90;;;;;;4939825;28;20051;-83
2021/10/15 03:36:08;;;;;;;29.80;27.10;;;5.30;99.90;;;;;;4956845;28;20035;-82
2021/10/15 03:38:35;;;;;;;29.65;27.35;;;5.30;99.90;;;;;;4958963;28;20050;-83
2021/10/15 03:41:01;;;;;;;31.05;28.65;;;5.20;99.90;;;;;;4941275;28;20031;-82
2021/10/15 03:43:27;;;;;;;29.55;27.50;;;5.30;99.90;;;;;;4964408;28;20365;-82
2021/10/15 03:45:53;;;;;;;32.97;30.23;;;5.30;99.90;;;;;;4960649;28;20397;-82
2021/10/15 03:48:20;;;;;;;37.10;34.05;;;5.30;99.90;;;;;;4940810;29;20495;-82
2021/10/15 03:50:46;;;;;;;36.35;33.42;;;5.40;99.90;;;;;;4965933;28;20027;-83
2021/10/15 03:53:12;;;;;;;37.42;34.22;;;5.40;99.90;;;;;;4924228;29;20031;-83
2021/10/15 03:55:38;;;;;;;36.60;33.67;;;5.40;99.90;;;;;;4968868;28;20050;-83
2021/10/15 03:58:04;;;;;;;38.85;35.50;;;5.50;99.90;;;;;;4952265;28;20518;-83
2021/10/15 04:00:31;;;;;;;40.17;37.08;;;5.50;99.90;;;;;;4965244;28;20027;-82
2021/10/15 04:02:57;;;;;;;37.95;34.80;;;5.40;99.90;;;;;;4939915;29;20437;-82
2021/10/15 04:05:23;;;;;;;36.13;32.72;;;5.40;99.90;;;;;;4956903;28;20042;-82
2021/10/15 04:07:49;;;;;;;34.80;31.85;;;5.30;99.90;;;;;;4962596;28;20050;-82
2021/10/15 04:10:16;;;;;;;32.90;30.30;;;5.30;99.90;;;;;;4952717;29;20042;-82
2021/10/15 04:12:42;;;;;;;32.92;30.30;;;5.30;99.90;;;;;;4956518;28;20039;-83
2021/10/15 04:15:10;;;;;;;33.30;30.55;;;5.30;99.90;;;;;;4922700;29;20047;-83
2021/10/15 04:17:38;;;;;;;36.28;33.47;;;5.30;99.90;;;;;;4938877;29;20039;-82
2021/10/15 04:20:06;;;;;;;37.47;34.03;;;5.40;99.90;;;;;;4966069;28;20037;-83
2021/10/15 04:22:32;;;;;;;35.83;33.17;;;5.30;99.90;;;;;;4953810;28;20039;-82
2021/10/15 04:24:58;;;;;;;35.75;32.83;;;5.30;99.90;;;;;;4974255;28;20404;-83
2021/10/15 04:27:25;;;;;;;34.85;31.92;;;5.30;99.90;;;;;;4953295;28;20463;-82
2021/10/15 04:29:51;;;;;;;37.05;33.90;;;5.30;99.90;;;;;;4966793;28;20043;-82
2021/10/15 04:32:18;;;;;;;34.05;31.42;;;5.20;99.90;;;;;;4948575;28;20487;-83
2021/10/15 04:34:44;;;;;;;33.55;30.92;;;5.20;99.90;;;;;;4945666;29;20042;-83
2021/10/15 04:37:10;;;;;;;32.92;30.40;;;5.10;99.90;;;;;;4958079;28;20036;-82
2021/10/15 04:39:37;;;;;;;35.00;32.28;;;5.10;99.90;;;;;;4968413;28;20042;-82
2021/10/15 04:42:03;;;;;;;33.67;31.10;;;5.10;99.90;;;;;;4954942;28;20207;-81
2021/10/15 04:44:29;;;;;;;33.13;30.17;;;5.10;99.90;;;;;;4943044;28;20051;-82
2021/10/15 04:46:56;;;;;;;35.10;32.25;;;5.10;99.90;;;;;;4938740;28;20061;-83
2021/10/15 04:49:22;;;;;;;37.72;34.38;;;5.10;99.90;;;;;;4940067;29;20409;-84
2021/10/15 04:51:48;;;;;;;37.50;34.65;;;5.20;99.90;;;;;;4955543;28;20031;-83
2021/10/15 04:54:14;;;;;;;41.78;37.17;;;5.20;99.90;;;;;;4973412;28;20054;-84
2021/10/15 04:56:40;;;;;;;41.85;38.20;;;5.20;99.90;;;;;;4957007;28;20039;-83
2021/10/15 04:59:07;;;;;;;42.75;39.15;;;5.20;99.90;;;;;;4970760;28;20066;-83
2021/10/15 05:01:34;;;;;;;41.75;37.83;;;5.30;99.90;;;;;;4971243;28;20042;-83
2021/10/15 05:04:00;;;;;;;45.67;41.53;;;5.30;99.90;;;;;;4958072;28;20039;-82
2021/10/15 05:06:26;;;;;;;45.58;41.83;;;5.30;99.90;;;;;;4940296;29;20400;-81
2021/10/15 05:11:29;;;;;;;43.13;39.03;;;5.20;99.90;;;;;;4938742;29;20469;-81
2021/10/15 05:13:56;;;;;;;44.05;39.97;;;5.30;99.90;;;;;;4956379;28;20030;-81
2021/10/15 05:16:23;;;;;;;42.45;39.00;;;5.30;99.90;;;;;;4974188;28;20066;-83
2021/10/15 05:18:49;;;;;;;42.78;39.58;;;5.40;99.90;;;;;;4966769;28;20031;-84
2021/10/15 05:21:16;;;;;;;40.72;37.15;;;5.30;99.90;;;;;;4923226;28;20476;-84
2021/10/15 05:23:42;;;;;;;41.65;38.22;;;5.30;99.90;;;;;;4955667;28;20116;-88
2021/10/15 05:26:09;;;;;;;41.08;37.75;;;5.40;99.90;;;;;;4971154;28;20038;-84
2021/10/15 05:28:35;;;;;;;40.92;37.58;;;5.40;99.90;;;;;;4958114;28;20046;-83
2021/10/15 05:31:01;;;;;;;40.67;37.38;;;5.30;99.90;;;;;;4965427;28;20035;-82
2021/10/15 05:33:28;;;;;;;39.97;36.95;;;5.30;99.90;;;;;;4941921;28;20400;-83
2021/10/15 05:35:55;;;;;;;41.75;38.40;;;5.30;99.90;;;;;;4971532;28;20042;-82
2021/10/15 05:38:23;;;;;;;41.10;37.72;;;5.40;99.90;;;;;;4968067;28;20042;-80
2021/10/15 05:40:50;;;;;;;43.10;39.47;;;5.40;99.90;;;;;;4958312;28;20031;-79
2021/10/15 05:43:16;;;;;;;41.00;37.78;;;5.40;99.90;;;;;;4972274;28;20437;-77
2021/10/15 05:45:42;;;;;;;42.35;38.80;;;5.40;99.90;;;;;;4958806;28;20057;-78
2021/10/15 05:48:09;;;;;;;44.83;41.10;;;5.40;99.90;;;;;;4941330;29;20055;-76
2021/10/15 05:50:35;;;;;;;45.47;41.78;;;5.40;99.90;;;;;;4956699;28;20042;-76
2021/10/15 05:53:10;;;;;;;46.08;42.28;;;5.50;99.90;;;;;;4931280;29;20063;-76
2021/10/15 06:00:47;;;;;;;43.50;40.10;;;5.50;99.90;;;;;;4965892;28;20489;-80
2021/10/15 06:03:15;;;;;;;44.33;40.58;;;5.60;99.90;;;;;;4960950;28;20384;-77
2021/10/15 06:16:31;;;;;;;40.67;37.30;;;5.90;99.90;;;;;;4932294;29;20055;-76
2021/10/15 06:19:20;;;;;;;40.80;36.72;;;5.90;99.90;;;;;;4948340;28;20488;-76
2021/10/15 06:21:44;;;;;;;39.33;36.22;;;6.00;99.90;;;;;;4954675;29;20051;-80
2021/10/15 06:24:10;;;;;;;37.75;34.53;;;6.10;99.90;;;;;;4968720;28;20028;-78
2021/10/15 06:26:36;;;;;;;37.05;33.92;;;6.10;99.90;;;;;;4961287;28;20038;-77
2021/10/15 06:29:03;;;;;;;34.78;32.05;;;6.10;99.90;;;;;;4962510;28;20039;-77
2021/10/15 06:31:30;;;;;;;34.47;31.65;;;6.20;99.90;;;;;;4963780;28;20029;-77
2021/10/15 06:33:56;;;;;;;31.30;28.92;;;6.20;99.90;;;;;;4966130;28;20115;-76
2021/10/15 06:36:23;;;;;;;29.45;27.00;;;6.30;99.90;;;;;;4949281;28;20496;-77
2021/10/15 06:38:49;;;;;;;26.52;24.52;;;6.30;99.90;;;;;;4935905;29;20042;-77
2021/10/15 06:41:15;;;;;;;25.98;23.85;;;6.40;99.90;;;;;;4952483;28;20039;-76
2021/10/15 06:43:41;;;;;;;24.58;22.52;;;6.50;99.90;;;;;;4955610;28;20043;-76
2021/10/15 06:46:08;;;;;;;22.50;20.85;;;6.60;99.90;;;;;;4954292;28;20096;-76
2021/10/15 06:48:34;;;;;;;25.38;19.13;;;6.70;99.90;;;;;;4963140;28;20054;-77
2021/10/15 06:51:01;;;;;;;18.50;16.92;;;6.70;99.90;;;;;;4960826;28;20038;-77
2021/10/15 06:53:27;;;;;;;18.35;16.85;;;6.80;99.90;;;;;;4945672;29;20047;-77
2021/10/15 06:55:53;;;;;;;18.65;17.27;;;6.90;99.90;;;;;;4960035;28;20047;-77
2021/10/15 06:58:19;;;;;;;17.05;15.65;;;7.00;99.90;;;;;;4954384;28;20027;-77
2021/10/15 07:00:47;;;;;;;16.13;14.63;;;7.00;99.90;;;;;;4954648;28;20027;-81
2021/10/15 07:03:19;;;;;;;14.80;13.60;;;7.10;99.90;;;;;;4973607;28;20039;-78
2021/10/15 07:05:46;;;;;;;13.98;12.88;;;7.30;99.90;;;;;;4956506;28;20030;-82
2021/10/15 07:08:13;;;;;;;13.88;12.63;;;7.30;99.90;;;;;;4982052;28;20380;-78
2021/10/15 07:10:39;;;;;;;12.80;11.65;;;7.50;99.90;;;;;;4963716;28;20027;-78
2021/10/15 07:13:05;;;;;;;11.55;10.65;;;7.60;99.90;;;;;;4944159;29;20050;-78
2021/10/15 07:15:32;;;;;;;10.52;9.70;;;7.70;99.90;;;;;;4948609;29;20035;-78
2021/10/15 07:17:59;;;;;;;11.77;10.60;;;7.50;99.90;;;;;;4971889;28;20046;-79
2021/10/15 07:20:27;;;;;;;12.13;10.90;;;7.60;99.90;;;;;;4957657;29;20049;-81
2021/10/15 07:22:57;;;;;;;11.00;10.02;;;7.60;99.90;;;;;;4934849;28;20468;-80
2021/10/15 07:25:24;;;;;;;10.75;9.80;;;7.50;99.90;;;;;;4969239;28;20047;-79
2021/10/15 07:27:50;;;;;;;10.98;10.00;;;7.60;99.90;;;;;;4970994;28;20104;-82
2021/10/15 07:30:17;;;;;;;15.13;10.88;;;7.60;99.90;;;;;;4958354;28;20035;-80
2021/10/15 07:32:43;;;;;;;10.48;9.50;;;7.70;99.90;;;;;;4957756;28;20062;-80
2021/10/15 07:35:09;;;;;;;12.32;9.57;;;7.90;99.90;;;;;;4958209;28;20038;-80
2021/10/15 07:37:36;;;;;;;9.95;9.05;;;8.00;99.90;;;;;;4957993;28;20035;-80
2021/10/15 07:40:04;;;;;;;8.98;7.97;;;8.30;99.90;;;;;;4965676;28;20023;-82
2021/10/15 07:42:32;;;;;;;13.45;8.90;;;8.40;99.90;;;;;;4962012;28;20034;-81
2021/10/15 07:44:58;;;;;;;8.82;8.02;;;8.70;99.90;;;;;;4970809;28;20039;-81
2021/10/15 07:47:24;;;;;;;7.90;7.20;;;9.30;99.90;;;;;;4943961;28;20038;-80
2021/10/15 07:49:50;;;;;;;8.13;7.40;;;9.50;99.90;;;;;;4975513;28;20122;-81
2021/10/15 07:52:17;;;;;;;6.47;5.82;;;10.00;99.80;;;;;;4976440;28;20372;-81
2021/10/15 07:54:43;;;;;;;7.57;6.85;;;10.20;97.20;;;;;;4971943;28;20038;-81
2021/10/15 07:57:12;;;;;;;11.18;7.25;;;10.60;96.20;;;;;;4961501;28;20468;-81
2021/10/15 07:59:38;;;;;;;6.68;6.03;;;10.80;93.90;;;;;;4966924;28;20031;-80
2021/10/15 08:02:04;;;;;;;6.13;5.47;;;11.00;93.00;;;;;;4953235;28;20500;-81
2021/10/15 08:04:31;;;;;;;6.63;6.03;;;11.30;91.80;;;;;;4970020;28;20027;-80
2021/10/15 08:06:57;;;;;;;5.28;4.78;;;11.40;91.80;;;;;;4953345;28;20038;-80
2021/10/15 08:09:23;;;;;;;6.93;5.30;;;12.10;90.30;;;;;;4956149;28;20039;-81
2021/10/15 08:11:52;;;;;;;7.45;4.93;;;12.80;86.10;;;;;;4960584;28;20047;-81
2021/10/15 08:14:20;;;;;;;5.78;4.47;;;13.00;82.40;;;;;;4957066;29;20479;-82
2021/10/15 08:16:46;;;;;;;10.18;4.78;;;12.20;82.90;;;;;;4959191;28;20051;-81
2021/10/15 08:19:13;;;;;;;12.32;6.03;;;12.00;85.90;;;;;;4965712;28;20035;-80
2021/10/15 08:21:39;;;;;;;6.05;5.20;;;13.20;81.80;;;;;;4965620;28;20035;-80
2021/10/15 08:24:05;;;;;;;4.15;3.75;;;14.00;78.60;;;;;;4940237;29;20393;-82
2021/10/15 08:26:32;;;;;;;10.25;4.75;;;13.40;77.40;;;;;;4971320;28;20035;-81
2021/10/15 08:29:00;;;;;;;9.93;4.68;;;13.10;79.50;;;;;;4974938;28;20034;-81
2021/10/15 08:31:29;;;;;;;6.15;4.97;;;13.80;79.00;;;;;;4974033;28;20042;-82
2021/10/15 08:33:58;;;;;;;7.85;5.03;;;14.40;74.70;;;;;;4979525;28;20027;-80
2021/10/15 08:36:28;;;;;;;5.53;4.97;;;13.90;76.20;;;;;;4957747;28;20046;-80
2021/10/15 08:38:54;;;;;;;6.50;5.05;;;13.20;77.90;;;;;;4944083;28;20035;-81
2021/10/15 08:41:25;;;;;;;7.75;6.55;;;13.00;78.70;;;;;;4961984;28;20023;-81
2021/10/15 08:43:57;;;;;;;5.47;4.97;;;13.10;78.70;;;;;;4957799;28;20054;-79
2021/10/15 08:46:24;;;;;;;6.95;5.38;;;13.80;77.10;;;;;;4964778;28;20051;-80
2021/10/15 08:48:51;;;;;;;8.10;5.72;;;14.30;75.40;;;;;;4965986;28;20396;-83
2021/10/15 08:51:20;;;;;;;5.28;4.85;;;14.30;74.40;;;;;;4958058;28;20031;-80
2021/10/15 08:53:48;;;;;;;7.95;5.70;;;13.40;76.60;;;;;;4942215;29;20047;-81
2021/10/15 08:56:22;;;;;;;6.18;5.45;;;13.50;76.50;;;;;;4958860;29;20484;-80
2021/10/15 08:58:51;;;;;;;8.77;7.03;;;13.20;77.30;;;;;;4980615;28;20050;-81
2021/10/15 09:01:18;;;;;;;6.80;6.05;;;13.60;76.80;;;;;;4958402;28;20358;-80
2021/10/15 09:04:03;;;;;;;6.38;5.78;;;14.30;75.40;;;;;;4956981;28;20038;-80
2021/10/15 09:06:43;;;;;;;8.52;6.70;;;15.00;73.10;;;;;;4954864;28;20039;-81
2021/10/15 09:09:11;;;;;;;9.10;5.70;;;15.70;70.00;;;;;;4971414;28;20043;-82
2021/10/15 09:11:46;;;;;;;6.93;5.68;;;14.40;71.70;;;;;;4961566;28;20042;-80
2021/10/15 09:14:24;;;;;;;7.25;6.65;;;14.30;74.50;;;;;;4951738;28;20035;-81
2021/10/15 09:16:51;;;;;;;6.97;5.93;;;15.20;72.20;;;;;;4959198;28;20066;-85
2021/10/15 09:19:32;;;;;;;6.00;5.03;;;16.20;67.70;;;;;;4969149;28;20023;-80
2021/10/15 09:22:29;;;;;;;7.63;5.88;;;15.50;70.50;;;;;;4959422;28;20099;-81
2021/10/15 09:25:11;;;;;;;6.43;5.82;;;14.70;71.60;;;;;;4941831;29;20476;-80
2021/10/15 09:27:43;;;;;;;7.68;5.63;;;13.80;74.70;;;;;;4939570;29;20053;-80
2021/10/15 09:30:16;;;;;;;10.73;6.00;;;13.80;75.40;;;;;;4952723;28;20026;-80
2021/10/15 09:32:49;;;;;;;9.57;6.82;;;13.40;76.80;;;;;;4955649;28;20393;-79
2021/10/15 09:35:18;;;;;;;7.72;6.53;;;13.20;77.50;;;;;;4967834;28;20027;-83
2021/10/15 09:37:47;;;;;;;7.55;6.70;;;12.70;78.20;;;;;;4958309;28;20511;-83
2021/10/15 09:40:20;;;;;;;14.77;8.18;;;12.50;79.80;;;;;;4957215;28;20046;-83
2021/10/15 09:42:58;;;;;;;15.32;6.78;;;12.50;80.30;;;;;;4949030;28;20373;-82
2021/10/15 09:45:33;;;;;;;8.45;7.45;;;12.40;81.20;;;;;;4942194;29;20059;-82
2021/10/15 09:48:18;;;;;;;10.13;7.32;;;12.30;81.70;;;;;;4961795;28;20031;-76
2021/10/15 09:50:48;;;;;;;16.55;7.22;;;12.50;82.60;;;;;;4976822;28;20495;-81
2021/10/15 09:53:14;;;;;;;7.47;6.28;;;12.60;80.70;;;;;;4976755;28;20038;-82
2021/10/15 09:55:44;;;;;;;8.70;7.20;;;12.60;80.70;;;;;;4962830;28;20039;-81
2021/10/15 09:58:19;;;;;;;6.50;4.73;;;12.80;81.10;;;;;;4959920;28;20039;-81
2021/10/15 10:00:50;;;;;;;8.00;7.13;;;13.10;80.20;;;;;;4952778;28;20049;-82
2021/10/15 10:03:20;;;;;;;7.65;6.97;;;12.90;81.10;;;;;;4980850;28;20038;-80
2021/10/15 10:05:47;;;;;;;6.10;5.38;;;13.00;81.10;;;;;;4969528;28;20047;-81
2021/10/15 10:08:16;;;;;;;7.82;6.93;;;13.20;80.80;;;;;;4945943;29;20485;-82
2021/10/15 10:10:54;;;;;;;7.63;6.82;;;13.10;79.70;;;;;;4976403;28;20057;-82
2021/10/15 10:13:22;;;;;;;8.10;7.30;;;13.00;80.80;;;;;;4973679;28;20036;-82
2021/10/15 10:15:50;;;;;;;7.95;7.10;;;12.90;80.80;;;;;;4960813;28;20047;-84
2021/10/15 10:18:21;;;;;;;10.10;6.40;;;13.10;81.30;;;;;;4939559;29;20051;-82
2021/10/15 10:20:55;;;;;;;7.68;6.88;;;13.30;80.60;;;;;;4957028;28;20461;-81
2021/10/15 10:23:44;;;;;;;9.20;7.35;;;13.40;80.30;;;;;;4947562;28;20043;-81
2021/10/15 10:26:14;;;;;;;7.05;6.35;;;13.30;80.70;;;;;;4943537;28;20034;-80
2021/10/15 10:28:40;;;;;;;5.63;5.13;;;13.10;80.60;;;;;;4961541;28;20039;-82
2021/10/15 10:31:21;;;;;;;6.22;5.70;;;13.20;81.30;;;;;;4958761;28;20039;-82
2021/10/15 10:34:23;;;;;;;6.63;5.72;;;13.20;81.20;;;;;;4961533;28;20051;-82
2021/10/15 10:37:12;;;;;;;16.65;5.90;;;13.30;81.20;;;;;;4950700;28;20058;-79
2021/10/15 10:39:40;;;;;;;7.68;6.93;;;13.50;81.10;;;;;;4961456;28;20058;-81
2021/10/15 10:42:14;;;;;;;7.15;6.35;;;13.60;80.40;;;;;;4975386;28;20031;-81
2021/10/15 10:45:01;;;;;;;8.20;6.95;;;13.70;79.70;;;;;;4964832;28;20035;-80
2021/10/15 10:47:28;;;;;;;7.70;5.82;;;13.90;80.20;;;;;;4944963;28;20055;-82
2021/10/15 10:50:15;;;;;;;6.55;5.55;;;14.00;79.00;;;;;;4970141;28;20057;-78
2021/10/15 10:52:48;;;;;;;9.13;5.55;;;14.10;80.00;;;;;;4946947;28;20065;-83
2021/10/15 10:55:54;;;;;;;6.70;6.00;;;14.30;78.40;;;;;;4964038;28;20030;-79
2021/10/15 10:58:38;;;;;;;8.25;5.75;;;14.20;78.10;;;;;;4971995;28;20038;-79
2021/10/15 11:01:25;;;;;;;5.97;5.40;;;14.20;78.60;;;;;;4964358;28;20061;-80
2021/10/15 11:04:31;;;;;;;7.55;4.88;;;14.40;76.80;;;;;;4965750;28;20045;-79
2021/10/15 11:07:04;;;;;;;6.22;5.60;;;14.60;77.00;;;;;;4956534;28;20035;-79
2021/10/15 11:09:35;;;;;;;15.70;7.63;;;14.50;77.30;;;;;;4956950;29;20128;-80
2021/10/15 11:12:02;;;;;;;7.73;6.70;;;14.40;78.00;;;;;;4958239;28;20465;-79
2021/10/15 11:15:05;;;;;;;8.27;6.28;;;14.70;77.40;;;;;;4957891;28;20042;-79
2021/10/15 11:17:36;;;;;;;14.65;5.80;;;15.00;76.30;;;;;;4972451;28;20384;-79
2021/10/15 11:20:27;;;;;;;9.23;5.53;;;15.10;75.70;;;;;;4982520;28;20035;-84
2021/10/15 11:22:59;;;;;;;6.18;5.32;;;15.40;75.40;;;;;;4940316;29;20034;-83
2021/10/15 11:25:30;;;;;;;8.68;4.85;;;15.40;74.60;;;;;;4976911;28;20039;-83
2021/10/15 11:28:00;;;;;;;8.13;5.45;;;15.60;73.40;;;;;;4984503;28;20486;-82
2021/10/15 11:30:32;;;;;;;3.88;3.58;;;15.60;71.30;;;;;;4978826;28;20035;-81
2021/10/15 11:32:58;;;;;;;4.47;3.70;;;15.70;73.30;;;;;;4948008;28;20046;-82
2021/10/15 11:35:32;;;;;;;6.63;5.03;;;15.70;71.90;;;;;;4975291;28;20031;-81
2021/10/15 11:38:19;;;;;;;3.83;3.30;;;15.80;70.10;;;;;;4962693;28;20035;-81
2021/10/15 11:40:48;;;;;;;5.55;3.58;;;15.70;70.30;;;;;;4965967;28;20035;-81
2021/10/15 11:43:36;;;;;;;4.20;3.80;;;15.60;70.30;;;;;;4970030;28;20047;-82
2021/10/15 11:46:05;;;;;;;4.05;3.60;;;15.40;71.20;;;;;;4956161;28;20496;-80
2021/10/15 11:48:39;;;;;;;5.43;4.15;;;15.40;70.20;;;;;;4962947;28;20050;-83
2021/10/15 11:51:11;;;;;;;7.13;4.35;;;15.50;70.50;;;;;;4956347;28;20036;-80
2021/10/15 11:53:43;;;;;;;4.47;3.13;;;15.80;70.30;;;;;;4964692;28;20035;-82
2021/10/15 11:56:13;;;;;;;9.40;4.97;;;16.10;68.20;;;;;;4972808;28;20051;-81
2021/10/15 11:58:44;;;;;;;3.70;2.93;;;16.10;68.90;;;;;;4959497;28;20047;-81
2021/10/15 12:01:10;;;;;;;15.07;11.98;;;16.10;68.90;;;;;;4979727;28;20393;-80
2021/10/15 12:03:37;;;;;;;17.73;13.80;;;15.90;69.40;;;;;;4971808;28;20041;-81
2021/10/15 12:06:40;;;;;;;7.32;5.15;;;15.80;68.40;;;;;;4960652;28;20047;-81
2021/10/15 12:09:12;;;;;;;33.05;26.10;;;15.70;68.00;;;;;;4945908;28;20038;-81
2021/10/15 12:14:16;;;;;;;3.00;2.70;;;15.90;68.90;;;;;;4957120;28;20050;-80
2021/10/15 12:17:21;;;;;;;8.00;5.40;;;15.60;67.00;;;;;;4975127;28;20065;-81
2021/10/15 12:19:51;;;;;;;4.53;3.20;;;15.50;68.10;;;;;;4960900;28;20046;-81
2021/10/15 12:22:24;;;;;;;3.33;2.45;;;15.50;68.60;;;;;;4952154;28;20046;-81
2021/10/15 12:25:01;;;;;;;3.50;2.67;;;15.70;68.00;;;;;;4959684;28;20046;-81
2021/10/15 12:27:38;;;;;;;3.55;2.53;;;15.90;68.00;;;;;;4942121;28;20042;-82
2021/10/15 12:30:14;;;;;;;3.38;2.45;;;16.00;66.00;;;;;;4956721;28;20479;-81
2021/10/15 12:32:41;;;;;;;4.35;2.50;;;16.10;65.90;;;;;;4960271;28;20031;-81
2021/10/15 12:35:14;;;;;;;2.95;2.50;;;16.20;66.30;;;;;;4949123;28;20111;-80
2021/10/15 12:37:49;;;;;;;3.55;2.30;;;16.20;66.50;;;;;;4969788;28;20034;-79
2021/10/15 12:40:21;;;;;;;2.30;1.58;;;16.40;66.10;;;;;;4964435;28;20023;-80
2021/10/15 12:43:06;;;;;;;2.72;1.92;;;16.50;65.20;;;;;;4966614;28;20031;-79
2021/10/15 12:45:38;;;;;;;12.07;3.03;;;16.50;65.00;;;;;;4958394;28;20031;-81
2021/10/15 12:48:24;;;;;;;2.80;1.90;;;16.40;65.10;;;;;;4972869;28;20049;-80
2021/10/15 12:51:10;;;;;;;3.65;2.45;;;16.60;63.80;;;;;;4938416;29;20481;-81
2021/10/15 12:53:42;;;;;;;6.68;3.38;;;16.50;65.90;;;;;;4938722;29;20035;-81
2021/10/15 12:56:17;;;;;;;2.75;2.22;;;16.30;66.90;;;;;;4954363;28;20046;-78
2021/10/15 12:58:56;;;;;;;4.35;2.83;;;16.40;67.30;;;;;;4966288;28;20392;-80
2021/10/15 13:01:25;;;;;;;3.13;2.42;;;16.30;67.80;;;;;;4963799;28;20033;-80
2021/10/15 13:03:53;;;;;;;3.55;2.65;;;16.30;67.80;;;;;;4971284;28;20034;-81
2021/10/15 13:06:19;;;;;;;3.38;2.95;;;16.00;67.10;;;;;;4950546;28;20472;-80
2021/10/15 13:08:50;;;;;;;3.15;2.85;;;16.00;67.50;;;;;;4968861;28;20440;-79
2021/10/15 13:11:21;;;;;;;7.00;2.90;;;15.90;68.10;;;;;;4962078;28;20581;-78
2021/10/15 13:13:49;;;;;;;2.80;2.60;;;15.80;69.80;;;;;;4967973;28;20019;-82